createdAt,value
2023-03-30T00:01:57.881Z,100942.63
2023-03-30T00:04:27.332Z,100943.00
2023-03-30T00:06:55.498Z,100936.59
2023-03-30T00:09:23.450Z,100936.72
2023-03-30T00:11:51.339Z,100941.75
2023-03-30T00:14:21.463Z,100931.81
2023-03-30T00:16:51.072Z,100931.81
2023-03-30T00:19:19.016Z,100930.84
2023-03-30T00:21:47.387Z,100924.56
2023-03-30T00:24:15.496Z,100924.19
2023-03-30T00:26:43.399Z,100920.63
2023-03-30T00:29:11.604Z,100911.53
2023-03-30T00:31:39.506Z,100896.03
2023-03-30T00:34:09.679Z,100899.34
2023-03-30T00:36:37.544Z,100884.25
2023-03-30T00:39:06.650Z,100882.25
2023-03-30T00:41:34.625Z,100873.53
2023-03-30T00:44:04.310Z,100873.53
2023-03-30T00:46:33.284Z,100864.31
2023-03-30T00:49:05.350Z,100860.63
2023-03-30T00:51:36.738Z,100851.66
2023-03-30T00:54:08.120Z,100849.94
2023-03-30T00:56:36.083Z,100853.13
2023-03-30T00:59:04.255Z,100849.41
2023-03-30T01:01:38.639Z,100848.44
2023-03-30T01:04:08.903Z,100842.78
2023-03-30T01:06:40.479Z,100834.78
2023-03-30T01:09:09.512Z,100830.47
2023-03-30T01:11:37.621Z,100832.81
2023-03-30T01:14:07.845Z,100822.25
2023-03-30T01:16:44.225Z,100825.94
2023-03-30T01:19:37.064Z,100807.50
2023-03-30T01:22:20.738Z,100808.47
2023-03-30T01:25:21.303Z,100819.41
2023-03-30T01:28:08.986Z,100822.63
2023-03-30T01:30:47.016Z,100804.44
2023-03-30T01:33:30.693Z,100792.28
2023-03-30T01:36:25.135Z,100788.53
2023-03-30T01:39:15.043Z,100796.66
2023-03-30T01:41:51.700Z,100791.03
2023-03-30T01:44:24.214Z,100789.34
2023-03-30T01:46:54.007Z,100780.34
2023-03-30T01:49:25.572Z,100752.06
2023-03-30T01:52:01.225Z,100759.19
2023-03-30T01:54:33.418Z,100764.72
2023-03-30T01:57:05.664Z,100755.88
2023-03-30T01:59:37.290Z,100748.63
2023-03-30T02:02:07.285Z,100768.66
2023-03-30T02:04:39.923Z,100754.31
2023-03-30T02:07:10.118Z,100737.03
2023-03-30T02:09:41.450Z,100736.06
2023-03-30T02:12:11.192Z,100721.97
2023-03-30T02:14:41.085Z,100721.31
2023-03-30T02:17:12.717Z,100705.59
2023-03-30T02:19:42.120Z,100701.78
2023-03-30T02:22:10.043Z,100706.22
2023-03-30T02:24:39.446Z,100692.69
2023-03-30T02:27:07.957Z,100694.78
2023-03-30T02:29:37.154Z,100693.41
2023-03-30T02:32:05.361Z,100691.69
2023-03-30T02:34:47.779Z,100688.16
2023-03-30T02:37:33.995Z,100677.78
2023-03-30T02:40:13.490Z,100674.09
2023-03-30T02:42:53.409Z,100677.66
2023-03-30T02:45:31.454Z,100657.34
2023-03-30T02:48:13.680Z,100647.78
2023-03-30T02:50:45.737Z,100643.34
2023-03-30T02:53:19.040Z,100632.34
2023-03-30T02:55:52.656Z,100627.63
2023-03-30T02:58:25.532Z,100612.59
2023-03-30T03:00:57.431Z,100600.41
2023-03-30T03:03:31.772Z,100599.94
2023-03-30T03:06:02.638Z,100597.78
2023-03-30T03:08:35.248Z,100601.31
2023-03-30T03:11:05.163Z,100580.75
2023-03-30T03:13:33.244Z,100578.19
2023-03-30T03:16:02.821Z,100578.31
2023-03-30T03:18:32.412Z,100570.00
2023-03-30T03:21:00.435Z,100562.94
2023-03-30T03:23:28.435Z,100558.72
2023-03-30T03:25:56.322Z,100557.41
2023-03-30T03:28:25.594Z,100563.66
2023-03-30T03:30:54.308Z,100558.97
2023-03-30T03:33:22.665Z,100552.84
2023-03-30T03:35:54.269Z,100547.78
2023-03-30T03:38:22.885Z,100546.38
2023-03-30T03:40:51.949Z,100543.38
2023-03-30T03:43:20.171Z,100527.47
2023-03-30T03:45:50.319Z,100527.47
2023-03-30T03:48:19.703Z,100514.13
2023-03-30T03:50:51.056Z,100507.97
2023-03-30T03:53:18.969Z,100509.03
2023-03-30T03:55:47.144Z,100511.09
2023-03-30T03:58:15.243Z,100509.34
2023-03-30T04:00:43.236Z,100493.81
2023-03-30T04:03:12.604Z,100490.84
2023-03-30T04:05:41.758Z,100485.69
2023-03-30T04:08:11.177Z,100473.31
2023-03-30T04:10:39.546Z,100473.88
2023-03-30T04:13:07.532Z,100465.03
2023-03-30T04:15:35.569Z,100457.34
2023-03-30T04:18:05.415Z,100450.22
2023-03-30T04:20:34.858Z,100441.09
2023-03-30T04:23:02.826Z,100436.56
2023-03-30T04:25:31.204Z,100430.28
2023-03-30T04:27:59.096Z,100421.91
2023-03-30T04:30:30.532Z,100412.94
2023-03-30T04:33:04.680Z,100414.50
2023-03-30T04:35:35.323Z,100414.06
2023-03-30T04:38:03.397Z,100408.22
2023-03-30T04:40:31.374Z,100406.38
2023-03-30T04:43:02.689Z,100400.66
2023-03-30T04:45:30.852Z,100400.38
2023-03-30T04:47:58.919Z,100396.53
2023-03-30T04:50:27.199Z,100390.84
2023-03-30T04:52:56.500Z,100392.44
2023-03-30T04:55:24.386Z,100391.72
2023-03-30T04:57:52.265Z,100390.16
2023-03-30T05:00:21.291Z,100388.03
2023-03-30T05:02:49.259Z,100381.94
2023-03-30T05:05:17.418Z,100375.13
2023-03-30T05:07:46.556Z,100372.00
2023-03-30T05:10:16.064Z,100359.16
2023-03-30T05:12:43.964Z,100354.75
2023-03-30T05:15:12.321Z,100352.59
2023-03-30T05:17:40.326Z,100350.47
2023-03-30T05:20:10.183Z,100346.75
2023-03-30T05:22:38.160Z,100343.06
2023-03-30T05:25:07.265Z,100344.06
2023-03-30T05:27:36.623Z,100340.06
2023-03-30T05:30:05.143Z,100338.66
2023-03-30T05:32:33.073Z,100342.81
2023-03-30T05:35:01.405Z,100342.63
2023-03-30T05:37:29.295Z,100346.78
2023-03-30T05:39:57.674Z,100351.91
2023-03-30T05:42:25.738Z,100339.94
2023-03-30T05:44:54.991Z,100334.97
2023-03-30T05:47:23.050Z,100340.66
2023-03-30T05:49:51.043Z,100341.34
2023-03-30T05:52:18.918Z,100344.22
2023-03-30T05:54:46.855Z,100347.19
2023-03-30T05:57:14.783Z,100345.47
2023-03-30T05:59:42.787Z,100348.06
2023-03-30T06:02:13.212Z,100344.22
2023-03-30T06:04:41.303Z,100347.31
2023-03-30T06:07:09.301Z,100346.63
2023-03-30T06:09:37.504Z,100340.06
2023-03-30T06:12:06.051Z,100341.47
2023-03-30T06:14:33.978Z,100340.75
2023-03-30T06:17:02.019Z,100342.91
2023-03-30T06:19:31.348Z,100346.56
2023-03-30T06:21:59.297Z,100348.13
2023-03-30T06:24:27.251Z,100343.81
2023-03-30T06:26:55.967Z,100344.97
2023-03-30T06:29:24.160Z,100345.25
2023-03-30T06:31:52.337Z,100346.53
2023-03-30T06:34:20.558Z,100343.66
2023-03-30T06:36:50.722Z,100329.38
2023-03-30T06:39:18.673Z,100326.19
2023-03-30T06:41:46.585Z,100336.72
2023-03-30T06:44:15.676Z,100321.34
2023-03-30T06:46:43.707Z,100308.69
2023-03-30T06:49:13.204Z,100298.88
2023-03-30T06:51:42.060Z,100294.00
2023-03-30T06:54:11.857Z,100304.16
2023-03-30T06:56:40.362Z,100288.50
2023-03-30T06:59:08.382Z,100284.09
2023-03-30T07:01:37.196Z,100270.84
2023-03-30T07:04:05.646Z,100264.16
2023-03-30T07:06:33.589Z,100261.94
2023-03-30T07:09:01.964Z,100261.47
2023-03-30T07:11:31.304Z,100249.81
2023-03-30T07:14:01.208Z,100250.22
2023-03-30T07:16:29.305Z,100241.75
2023-03-30T07:18:57.796Z,100234.41
2023-03-30T07:21:25.757Z,100229.19
2023-03-30T07:23:53.662Z,100219.66
2023-03-30T07:26:21.534Z,100218.66
2023-03-30T07:28:50.929Z,100212.06
2023-03-30T07:31:20.218Z,100211.63
2023-03-30T07:33:48.957Z,100204.09
2023-03-30T07:36:16.995Z,100215.84
2023-03-30T07:38:44.900Z,100209.72
2023-03-30T07:41:14.584Z,100208.66
2023-03-30T07:43:43.400Z,100216.25
2023-03-30T07:46:13.604Z,100225.16
2023-03-30T07:48:42.073Z,100212.28
2023-03-30T07:51:11.133Z,100218.69
2023-03-30T07:53:39.740Z,100215.16
2023-03-30T07:56:08.228Z,100223.59
2023-03-30T07:58:37.113Z,100213.53
2023-03-30T08:01:05.424Z,100213.44
2023-03-30T08:03:35.139Z,100216.00
2023-03-30T08:06:05.613Z,100207.16
2023-03-30T08:08:34.452Z,100210.19
2023-03-30T08:11:02.735Z,100213.47
2023-03-30T08:13:32.846Z,100205.75
2023-03-30T08:16:01.306Z,100205.94
2023-03-30T08:18:29.381Z,100203.34
2023-03-30T08:20:58.716Z,100211.00
2023-03-30T08:23:27.086Z,100204.94
2023-03-30T08:25:58.103Z,100192.97
2023-03-30T08:28:26.809Z,100187.22
2023-03-30T08:30:55.416Z,100185.75
2023-03-30T08:33:24.229Z,100182.41
2023-03-30T08:35:52.577Z,100193.28
2023-03-30T08:38:21.930Z,100188.81
2023-03-30T08:40:51.126Z,100181.06
2023-03-30T08:43:43.143Z,100171.94
2023-03-30T08:46:14.756Z,100171.44
2023-03-30T08:48:43.143Z,100176.00
2023-03-30T08:51:20.581Z,100174.31
2023-03-30T08:53:52.073Z,100167.03
2023-03-30T08:56:22.922Z,100170.78
2023-03-30T08:58:57.548Z,100158.72
2023-03-30T09:01:28.183Z,100158.53
2023-03-30T09:04:04.597Z,100149.84
2023-03-30T09:06:46.013Z,100141.53
2023-03-30T09:09:18.696Z,100138.28
2023-03-30T09:11:49.576Z,100138.97
2023-03-30T09:14:20.872Z,100132.84
2023-03-30T09:16:52.984Z,100122.47
2023-03-30T09:19:25.131Z,100132.50
2023-03-30T09:21:55.454Z,100142.19
2023-03-30T09:24:26.737Z,100143.91
2023-03-30T09:27:00.268Z,100157.84
2023-03-30T09:29:30.171Z,100160.06
2023-03-30T09:32:05.874Z,100156.50
2023-03-30T09:34:40.313Z,100155.63
2023-03-30T09:37:11.231Z,100143.56
2023-03-30T09:39:41.385Z,100140.81
2023-03-30T09:42:14.916Z,100127.44
2023-03-30T09:44:47.374Z,100118.28
2023-03-30T09:47:23.101Z,100113.84
2023-03-30T09:49:57.002Z,100102.09
2023-03-30T09:52:26.855Z,100103.19
2023-03-30T09:54:57.381Z,100095.97
2023-03-30T09:57:28.131Z,100085.06
2023-03-30T09:59:56.920Z,100091.00
2023-03-30T10:02:27.815Z,100082.50
2023-03-30T10:05:04.439Z,100082.69
2023-03-30T10:07:35.217Z,100075.41
2023-03-30T10:10:16.186Z,100078.47
2023-03-30T10:12:44.190Z,100070.38
2023-03-30T10:15:17.110Z,100060.19
2023-03-30T10:17:47.180Z,100057.63
2023-03-30T10:20:27.892Z,100052.81
2023-03-30T10:22:57.200Z,100042.75
2023-03-30T10:25:29.713Z,100041.50
2023-03-30T10:28:03.039Z,100035.63
2023-03-30T10:30:31.726Z,100043.13
2023-03-30T10:33:01.273Z,100043.38
2023-03-30T10:35:34.470Z,100054.56
2023-03-30T10:38:03.272Z,100050.34
2023-03-30T10:40:36.791Z,100059.91
2023-03-30T10:43:06.590Z,100053.06
2023-03-30T10:45:38.034Z,100057.31
2023-03-30T10:48:20.413Z,100051.81
2023-03-30T10:50:57.546Z,100041.72
2023-03-30T10:53:37.240Z,100038.72
2023-03-30T10:56:14.684Z,100039.84
2023-03-30T10:58:53.505Z,100044.34
2023-03-30T11:01:29.495Z,100041.25
2023-03-30T11:04:12.402Z,100049.69
2023-03-30T11:06:49.963Z,100044.59
2023-03-30T11:09:23.094Z,100037.72
2023-03-30T11:11:54.942Z,100036.22
2023-03-30T11:14:24.997Z,100037.69
2023-03-30T11:17:00.126Z,100036.56
2023-03-30T11:19:35.109Z,100041.81
2023-03-30T11:22:08.782Z,100039.53
2023-03-30T11:24:36.940Z,100039.84
2023-03-30T11:27:12.115Z,100051.66
2023-03-30T11:29:44.790Z,100054.41
2023-03-30T11:32:21.962Z,100041.66
2023-03-30T11:35:02.956Z,100041.72
2023-03-30T11:37:35.461Z,100053.88
2023-03-30T11:40:19.092Z,100049.84
2023-03-30T11:43:15.035Z,100042.31
2023-03-30T11:45:57.547Z,100051.88
2023-03-30T11:52:29.203Z,100065.75
2023-03-30T11:55:29.916Z,100078.84
2023-03-30T11:58:14.712Z,100097.13
2023-03-30T12:01:02.338Z,100100.69
2023-03-30T12:03:48.348Z,100113.06
2023-03-30T12:06:41.492Z,100122.28
2023-03-30T12:09:34.115Z,100133.50
2023-03-30T12:12:12.076Z,100140.97
2023-03-30T12:15:11.518Z,100150.72
2023-03-30T12:17:54.591Z,100134.38
2023-03-30T12:20:35.867Z,100136.75
2023-03-30T12:23:43.648Z,100132.50
2023-03-30T12:26:28.126Z,100124.50
2023-03-30T12:32:10.157Z,100112.06
2023-03-30T12:34:47.213Z,100112.94
2023-03-30T12:37:19.353Z,100107.13
2023-03-30T12:39:49.974Z,100111.16
2023-03-30T12:42:27.346Z,100112.50
2023-03-30T12:45:11.157Z,100100.03
2023-03-30T12:47:54.952Z,100103.47
2023-03-30T12:50:32.969Z,100111.84
2023-03-30T12:53:27.400Z,100106.06
2023-03-30T12:56:02.084Z,100126.84
2023-03-30T12:58:59.416Z,100114.25
2023-03-30T13:01:36.554Z,100122.28
2023-03-30T13:04:08.723Z,100122.28
2023-03-30T13:06:39.201Z,100117.88
2023-03-30T13:09:35.505Z,100122.81
2023-03-30T13:12:34.634Z,100119.91
2023-03-30T13:15:06.929Z,100116.97
2023-03-30T13:17:58.246Z,100099.63
2023-03-30T13:20:32.868Z,100096.34
2023-03-30T13:23:07.233Z,100098.69
2023-03-30T13:25:40.175Z,100093.22
2023-03-30T13:28:45.477Z,100100.69
2023-03-30T13:31:25.223Z,100104.09
2023-03-30T13:33:58.717Z,100107.09
2023-03-30T13:36:29.620Z,100104.06
2023-03-30T13:39:05.684Z,100110.75
2023-03-30T13:41:41.483Z,100102.28
2023-03-30T13:44:21.928Z,100105.47
2023-03-30T13:46:53.242Z,100095.78
2023-03-30T13:49:35.736Z,100106.19
2023-03-30T13:52:07.189Z,100094.03
2023-03-30T13:54:36.020Z,100104.44
2023-03-30T13:57:09.614Z,100110.75
2023-03-30T13:59:40.269Z,100109.34
2023-03-30T14:02:09.233Z,100094.03
2023-03-30T14:04:39.118Z,100105.13
2023-03-30T14:07:16.199Z,100102.09
2023-03-30T14:09:44.930Z,100109.75
2023-03-30T14:12:14.038Z,100100.84
2023-03-30T14:14:47.187Z,100081.91
2023-03-30T14:17:20.046Z,100093.16
2023-03-30T14:19:58.516Z,100080.44
2023-03-30T14:22:29.115Z,100082.94
2023-03-30T14:24:58.925Z,100073.91
2023-03-30T14:27:27.161Z,100084.41
2023-03-30T14:29:55.246Z,100083.72
2023-03-30T14:32:25.181Z,100077.19
2023-03-30T14:34:54.640Z,100087.00
2023-03-30T14:37:24.312Z,100084.25
2023-03-30T14:39:54.981Z,100085.88
2023-03-30T14:42:25.639Z,100088.34
2023-03-30T14:44:58.248Z,100078.75
2023-03-30T14:47:27.630Z,100080.72
2023-03-30T14:49:58.250Z,100085.25
2023-03-30T14:52:30.119Z,100089.53
2023-03-30T14:55:07.236Z,100093.41
2023-03-30T14:57:38.937Z,100084.03
2023-03-30T15:00:20.591Z,100094.66
2023-03-30T15:02:50.917Z,100089.09
2023-03-30T15:05:19.468Z,100096.72
2023-03-30T15:07:49.391Z,100091.88
2023-03-30T15:10:27.043Z,100088.19
2023-03-30T15:12:57.069Z,100089.66
2023-03-30T15:15:27.872Z,100092.59
2023-03-30T15:17:56.550Z,100091.75
2023-03-30T15:20:27.152Z,100091.47
2023-03-30T15:22:55.292Z,100097.94
2023-03-30T15:25:31.401Z,100083.66
2023-03-30T15:28:02.166Z,100094.63
2023-03-30T15:30:32.517Z,100089.56
2023-03-30T15:33:00.727Z,100085.63
2023-03-30T15:35:30.274Z,100090.47
2023-03-30T15:37:59.923Z,100094.03
2023-03-30T15:40:34.798Z,100095.97
2023-03-30T15:43:17.039Z,100084.38
2023-03-30T15:45:53.607Z,100091.31
2023-03-30T15:48:24.373Z,100099.00
2023-03-30T15:50:56.837Z,100095.84
2023-03-30T15:53:34.349Z,100096.63
2023-03-30T15:56:04.195Z,100098.34
2023-03-30T15:58:32.098Z,100094.94
2023-03-30T16:01:00.130Z,100100.09
2023-03-30T16:03:40.723Z,100092.50
2023-03-30T16:06:12.883Z,100098.78
2023-03-30T16:08:43.567Z,100094.00
2023-03-30T16:11:15.309Z,100091.66
2023-03-30T16:13:43.755Z,100083.63
2023-03-30T16:16:13.984Z,100082.63
2023-03-30T16:18:42.936Z,100087.34
2023-03-30T16:21:12.470Z,100091.31
2023-03-30T16:23:40.805Z,100104.06
2023-03-30T16:26:09.762Z,100081.28
2023-03-30T16:28:40.797Z,100089.47
2023-03-30T16:31:14.262Z,100093.47
2023-03-30T16:33:43.418Z,100096.81
2023-03-30T16:36:14.923Z,100096.88
2023-03-30T16:38:42.945Z,100100.59
2023-03-30T16:41:12.980Z,100095.59
2023-03-30T16:43:42.330Z,100097.94
2023-03-30T16:46:12.311Z,100091.22
2023-03-30T16:48:40.516Z,100111.00
2023-03-30T16:51:08.731Z,100099.59
2023-03-30T16:53:36.664Z,100096.38
2023-03-30T16:56:04.903Z,100103.34
2023-03-30T16:58:32.796Z,100106.47
2023-03-30T17:01:04.677Z,100108.81
2023-03-30T17:03:32.841Z,100102.91
2023-03-30T17:06:00.747Z,100115.13
2023-03-30T17:08:29.320Z,100107.47
2023-03-30T17:11:00.934Z,100114.31
2023-03-30T17:13:29.068Z,100127.56
2023-03-30T17:15:58.406Z,100119.91
2023-03-30T17:18:28.502Z,100131.78
2023-03-30T17:20:57.496Z,100129.56
2023-03-30T17:23:27.126Z,100121.19
2023-03-30T17:25:56.388Z,100131.38
2023-03-30T17:28:25.598Z,100137.59
2023-03-30T17:30:55.054Z,100141.00
2023-03-30T17:33:23.539Z,100137.13
2023-03-30T17:35:55.361Z,100138.50
2023-03-30T17:38:23.451Z,100141.56
2023-03-30T17:40:51.466Z,100137.84
2023-03-30T17:43:19.409Z,100134.44
2023-03-30T17:45:47.458Z,100138.13
2023-03-30T17:48:17.553Z,100141.72
2023-03-30T17:50:47.917Z,100147.22
2023-03-30T17:53:18.082Z,100142.59
2023-03-30T17:55:47.031Z,100145.03
2023-03-30T17:58:18.198Z,100151.13
2023-03-30T18:00:47.392Z,100156.19
2023-03-30T18:03:15.874Z,100161.13
2023-03-30T18:05:44.731Z,100167.25
2023-03-30T18:08:17.231Z,100166.41
2023-03-30T18:10:48.041Z,100172.44
2023-03-30T18:13:16.641Z,100173.25
2023-03-30T18:15:45.949Z,100172.00
2023-03-30T18:18:22.448Z,100173.13
2023-03-30T18:20:51.305Z,100179.56
2023-03-30T18:23:19.696Z,100175.16
2023-03-30T18:25:49.373Z,100178.56
2023-03-30T18:28:18.742Z,100175.78
2023-03-30T18:30:46.854Z,100184.31
2023-03-30T18:33:16.145Z,100181.81
2023-03-30T18:35:44.757Z,100170.13
2023-03-30T18:38:13.568Z,100189.31
2023-03-30T18:40:44.592Z,100177.28
2023-03-30T18:43:14.182Z,100185.88
2023-03-30T18:45:43.316Z,100196.72
2023-03-30T18:48:13.748Z,100200.13
2023-03-30T18:50:43.263Z,100204.16
2023-03-30T18:53:13.214Z,100205.25
2023-03-30T18:55:42.822Z,100201.81
2023-03-30T18:58:15.404Z,100200.28
2023-03-30T19:00:43.938Z,100209.13
2023-03-30T19:03:13.204Z,100214.13
2023-03-30T19:05:42.003Z,100219.19
2023-03-30T19:08:12.125Z,100225.53
2023-03-30T19:10:41.948Z,100229.50
2023-03-30T19:13:14.818Z,100226.34
2023-03-30T19:15:43.305Z,100227.50
2023-03-30T19:18:11.536Z,100233.53
2023-03-30T19:20:41.450Z,100226.72
2023-03-30T19:23:10.691Z,100241.59
2023-03-30T19:25:38.618Z,100237.19
2023-03-30T19:28:07.353Z,100233.00
2023-03-30T19:30:39.523Z,100228.25
2023-03-30T19:33:09.984Z,100241.78
2023-03-30T19:35:40.796Z,100244.97
2023-03-30T19:38:08.759Z,100250.78
2023-03-30T19:40:37.879Z,100243.06
2023-03-30T19:43:05.824Z,100245.41
2023-03-30T19:45:33.873Z,100250.22
2023-03-30T19:48:03.181Z,100249.13
2023-03-30T19:50:31.757Z,100251.84
2023-03-30T19:52:59.807Z,100259.13
2023-03-30T19:55:27.915Z,100269.72
2023-03-30T19:57:55.857Z,100267.34
2023-03-30T20:00:24.075Z,100261.25
2023-03-30T20:02:53.485Z,100279.28
2023-03-30T20:05:24.537Z,100278.19
2023-03-30T20:07:52.747Z,100284.88
2023-03-30T20:10:22.765Z,100284.59
2023-03-30T20:12:51.601Z,100295.94
2023-03-30T20:15:20.742Z,100304.91
2023-03-30T20:17:48.849Z,100309.81
2023-03-30T20:20:25.156Z,100300.81
2023-03-30T20:22:56.482Z,100318.34
2023-03-30T20:25:24.978Z,100311.66
2023-03-30T20:27:53.111Z,100312.34
2023-03-30T20:30:21.676Z,100328.38
2023-03-30T20:33:03.902Z,100328.63
2023-03-30T20:35:36.542Z,100328.31
2023-03-30T20:38:06.634Z,100331.16
2023-03-30T20:40:34.585Z,100334.44
2023-03-30T20:43:03.385Z,100337.56
2023-03-30T20:45:31.865Z,100343.88
2023-03-30T20:48:16.238Z,100337.38
2023-03-30T20:50:44.226Z,100341.28
2023-03-30T20:53:13.549Z,100343.44
2023-03-30T20:55:41.454Z,100342.97
2023-03-30T20:58:09.361Z,100348.84
2023-03-30T21:00:37.328Z,100340.47
2023-03-30T21:03:06.069Z,100342.06
2023-03-30T21:05:34.073Z,100350.75
2023-03-30T21:08:02.055Z,100354.44
2023-03-30T21:10:31.421Z,100357.69
2023-03-30T21:12:59.352Z,100347.88
2023-03-30T21:15:27.260Z,100348.75
2023-03-30T21:17:55.448Z,100353.59
2023-03-30T21:20:23.650Z,100353.28
2023-03-30T21:22:51.585Z,100350.16
2023-03-30T21:25:19.517Z,100347.47
2023-03-30T21:27:48.804Z,100351.44
2023-03-30T21:30:16.998Z,100344.13
2023-03-30T21:32:44.916Z,100338.88
2023-03-30T21:35:12.853Z,100341.59
2023-03-30T21:37:40.862Z,100346.00
2023-03-30T21:40:09.801Z,100340.03
2023-03-30T21:42:37.678Z,100336.56
2023-03-30T21:45:08.026Z,100339.47
2023-03-30T21:47:35.977Z,100339.16
2023-03-30T21:50:04.387Z,100336.63
2023-03-30T21:52:33.509Z,100344.19
2023-03-30T21:55:01.414Z,100346.72
2023-03-30T21:57:30.178Z,100336.75
2023-03-30T21:59:58.139Z,100344.03
2023-03-30T22:02:27.527Z,100342.03
2023-03-30T22:04:55.561Z,100341.03
2023-03-30T22:07:23.536Z,100335.59
2023-03-30T22:09:51.445Z,100334.44
2023-03-30T22:12:20.576Z,100336.84
2023-03-30T22:14:48.495Z,100341.41
2023-03-30T22:17:18.729Z,100334.31
2023-03-30T22:19:51.960Z,100328.72
2023-03-30T22:22:19.855Z,100321.28
2023-03-30T22:24:47.769Z,100330.28
2023-03-30T22:27:16.386Z,100320.13
2023-03-30T22:29:44.290Z,100314.00
2023-03-30T22:32:12.247Z,100310.72
2023-03-30T22:34:41.021Z,100319.41
2023-03-30T22:37:10.316Z,100312.44
2023-03-30T22:39:39.159Z,100305.13
2023-03-30T22:42:07.183Z,100309.84
2023-03-30T22:44:35.100Z,100297.00
2023-03-30T22:47:03.087Z,100302.59
2023-03-30T22:49:31.185Z,100295.31
2023-03-30T22:52:02.305Z,100295.31
2023-03-30T22:54:31.831Z,100292.03
2023-03-30T22:57:00.141Z,100292.03
2023-03-30T22:59:28.208Z,100296.28
2023-03-30T23:01:56.079Z,100287.47
2023-03-30T23:04:24.755Z,100292.19
2023-03-30T23:06:54.855Z,100284.88
2023-03-30T23:09:22.967Z,100287.19
2023-03-30T23:11:53.713Z,100284.50
2023-03-30T23:14:21.878Z,100286.50
2023-03-30T23:16:52.004Z,100283.69
2023-03-30T23:19:20.006Z,100293.84
2023-03-30T23:21:47.960Z,100288.13
2023-03-30T23:24:16.096Z,100293.66
2023-03-30T23:26:44.073Z,100290.84
2023-03-30T23:29:13.356Z,100284.53
2023-03-30T23:31:41.263Z,100291.38
2023-03-30T23:34:11.843Z,100278.88
2023-03-30T23:36:39.727Z,100276.88
2023-03-30T23:39:09.285Z,100274.84
2023-03-30T23:41:37.329Z,100274.00
2023-03-30T23:44:05.458Z,100273.13
2023-03-30T23:46:35.327Z,100270.44
2023-03-30T23:49:03.659Z,100261.59
2023-03-30T23:51:31.608Z,100268.44
2023-03-30T23:54:00.157Z,100259.16
2023-03-30T23:56:29.999Z,100266.88
2023-03-30T23:58:59.142Z,100263.44
